sensor_id;sensor_type;location;lat;lon;timestamp;temperature;humidity
17370;DHT22;8802;52.402;4.920;2022-07-12T00:01:55;20.80;92.00
17370;DHT22;8802;52.402;4.920;2022-07-12T00:04:22;20.80;92.10
17370;DHT22;8802;52.402;4.920;2022-07-12T00:06:49;20.80;92.10
17370;DHT22;8802;52.402;4.920;2022-07-12T00:09:16;20.80;92.10
17370;DHT22;8802;52.402;4.920;2022-07-12T00:11:43;20.80;92.10
17370;DHT22;8802;52.402;4.920;2022-07-12T00:14:10;20.80;92.00
17370;DHT22;8802;52.402;4.920;2022-07-12T00:16:37;20.80;92.00
17370;DHT22;8802;52.402;4.920;2022-07-12T00:19:05;20.80;92.10
17370;DHT22;8802;52.402;4.920;2022-07-12T00:21:32;20.80;92.10
17370;DHT22;8802;52.402;4.920;2022-07-12T00:23:59;20.70;92.10
17370;DHT22;8802;52.402;4.920;2022-07-12T00:26:26;20.70;92.10
17370;DHT22;8802;52.402;4.920;2022-07-12T00:28:54;20.70;92.10
17370;DHT22;8802;52.402;4.920;2022-07-12T00:31:22;20.70;92.20
17370;DHT22;8802;52.402;4.920;2022-07-12T00:33:49;20.70;92.20
17370;DHT22;8802;52.402;4.920;2022-07-12T00:36:17;20.70;92.20
17370;DHT22;8802;52.402;4.920;2022-07-12T00:38:44;20.70;92.20
17370;DHT22;8802;52.402;4.920;2022-07-12T00:41:11;20.70;92.20
17370;DHT22;8802;52.402;4.920;2022-07-12T00:43:38;20.70;92.20
17370;DHT22;8802;52.402;4.920;2022-07-12T00:46:06;20.70;92.60
17370;DHT22;8802;52.402;4.920;2022-07-12T00:48:33;20.70;92.30
17370;DHT22;8802;52.402;4.920;2022-07-12T00:51:00;20.70;92.30
17370;DHT22;8802;52.402;4.920;2022-07-12T00:53:29;20.70;92.30
17370;DHT22;8802;52.402;4.920;2022-07-12T00:55:56;20.70;92.30
17370;DHT22;8802;52.402;4.920;2022-07-12T00:58:23;20.70;92.30
17370;DHT22;8802;52.402;4.920;2022-07-12T01:00:51;20.70;92.30
17370;DHT22;8802;52.402;4.920;2022-07-12T01:03:19;20.70;92.30
17370;DHT22;8802;52.402;4.920;2022-07-12T01:05:46;20.70;92.30
17370;DHT22;8802;52.402;4.920;2022-07-12T01:08:14;20.70;92.40
17370;DHT22;8802;52.402;4.920;2022-07-12T01:10:44;20.70;92.30
17370;DHT22;8802;52.402;4.920;2022-07-12T01:13:12;20.60;92.30
17370;DHT22;8802;52.402;4.920;2022-07-12T01:15:40;20.60;92.70
17370;DHT22;8802;52.402;4.920;2022-07-12T01:18:07;20.60;92.30
17370;DHT22;8802;52.402;4.920;2022-07-12T01:20:34;20.60;92.40
17370;DHT22;8802;52.402;4.920;2022-07-12T01:23:03;20.60;92.40
17370;DHT22;8802;52.402;4.920;2022-07-12T01:25:30;20.60;92.40
17370;DHT22;8802;52.402;4.920;2022-07-12T01:27:57;20.60;92.50
17370;DHT22;8802;52.402;4.920;2022-07-12T01:30:24;20.60;92.50
17370;DHT22;8802;52.402;4.920;2022-07-12T01:32:51;20.50;92.50
17370;DHT22;8802;52.402;4.920;2022-07-12T01:35:19;20.50;92.60
17370;DHT22;8802;52.402;4.920;2022-07-12T01:37:46;20.50;92.60
17370;DHT22;8802;52.402;4.920;2022-07-12T01:40:15;20.50;92.70
17370;DHT22;8802;52.402;4.920;2022-07-12T01:42:43;20.50;92.70
17370;DHT22;8802;52.402;4.920;2022-07-12T01:45:11;20.50;92.70
17370;DHT22;8802;52.402;4.920;2022-07-12T01:47:38;20.40;92.60
17370;DHT22;8802;52.402;4.920;2022-07-12T01:50:07;20.50;92.70
17370;DHT22;8802;52.402;4.920;2022-07-12T01:52:34;20.50;92.70
17370;DHT22;8802;52.402;4.920;2022-07-12T01:55:02;20.40;92.60
17370;DHT22;8802;52.402;4.920;2022-07-12T01:57:31;20.50;92.70
17370;DHT22;8802;52.402;4.920;2022-07-12T02:00:00;20.40;92.70
17370;DHT22;8802;52.402;4.920;2022-07-12T02:02:28;20.40;92.70
17370;DHT22;8802;52.402;4.920;2022-07-12T02:04:56;20.40;92.70
17370;DHT22;8802;52.402;4.920;2022-07-12T02:07:24;20.40;92.70
17370;DHT22;8802;52.402;4.920;2022-07-12T02:09:51;20.40;92.70
17370;DHT22;8802;52.402;4.920;2022-07-12T02:12:18;20.40;92.70
17370;DHT22;8802;52.402;4.920;2022-07-12T02:14:46;20.40;92.70
17370;DHT22;8802;52.402;4.920;2022-07-12T02:17:13;20.40;92.70
17370;DHT22;8802;52.402;4.920;2022-07-12T02:19:40;20.40;92.70
17370;DHT22;8802;52.402;4.920;2022-07-12T02:22:08;20.40;92.70
17370;DHT22;8802;52.402;4.920;2022-07-12T02:24:35;20.40;92.70
17370;DHT22;8802;52.402;4.920;2022-07-12T02:27:02;20.40;92.70
17370;DHT22;8802;52.402;4.920;2022-07-12T02:29:29;20.40;92.70
17370;DHT22;8802;52.402;4.920;2022-07-12T02:31:57;20.40;92.70
17370;DHT22;8802;52.402;4.920;2022-07-12T02:34:24;20.40;92.70
17370;DHT22;8802;52.402;4.920;2022-07-12T02:36:51;20.40;92.70
17370;DHT22;8802;52.402;4.920;2022-07-12T02:39:18;20.40;92.70
17370;DHT22;8802;52.402;4.920;2022-07-12T02:41:45;20.40;92.70
17370;DHT22;8802;52.402;4.920;2022-07-12T02:44:12;20.40;92.80
17370;DHT22;8802;52.402;4.920;2022-07-12T02:46:39;20.30;92.70
17370;DHT22;8802;52.402;4.920;2022-07-12T02:49:07;20.40;92.80
17370;DHT22;8802;52.402;4.920;2022-07-12T02:51:34;20.40;92.80
17370;DHT22;8802;52.402;4.920;2022-07-12T02:54:01;20.30;92.70
17370;DHT22;8802;52.402;4.920;2022-07-12T02:56:28;20.40;92.70
17370;DHT22;8802;52.402;4.920;2022-07-12T02:58:55;20.30;92.70
17370;DHT22;8802;52.402;4.920;2022-07-12T03:01:22;20.40;92.70
17370;DHT22;8802;52.402;4.920;2022-07-12T03:03:49;20.30;92.70
17370;DHT22;8802;52.402;4.920;2022-07-12T03:06:17;20.30;92.70
17370;DHT22;8802;52.402;4.920;2022-07-12T03:08:44;20.30;92.70
17370;DHT22;8802;52.402;4.920;2022-07-12T03:11:11;20.30;92.70
17370;DHT22;8802;52.402;4.920;2022-07-12T03:13:38;20.30;92.70
17370;DHT22;8802;52.402;4.920;2022-07-12T03:16:06;20.30;92.70
17370;DHT22;8802;52.402;4.920;2022-07-12T03:18:33;20.30;92.70
17370;DHT22;8802;52.402;4.920;2022-07-12T03:21:00;20.30;92.70
17370;DHT22;8802;52.402;4.920;2022-07-12T03:23:28;20.20;92.70
17370;DHT22;8802;52.402;4.920;2022-07-12T03:25:55;20.30;92.80
17370;DHT22;8802;52.402;4.920;2022-07-12T03:28:22;20.30;92.70
17370;DHT22;8802;52.402;4.920;2022-07-12T03:30:51;20.20;92.70
17370;DHT22;8802;52.402;4.920;2022-07-12T03:33:17;20.20;92.70
17370;DHT22;8802;52.402;4.920;2022-07-12T03:35:44;20.20;92.80
17370;DHT22;8802;52.402;4.920;2022-07-12T03:38:11;20.20;92.80
17370;DHT22;8802;52.402;4.920;2022-07-12T03:40:40;20.20;92.70
17370;DHT22;8802;52.402;4.920;2022-07-12T03:43:06;20.20;92.80
17370;DHT22;8802;52.402;4.920;2022-07-12T03:45:33;20.20;92.80
17370;DHT22;8802;52.402;4.920;2022-07-12T03:48:00;20.20;92.80
17370;DHT22;8802;52.402;4.920;2022-07-12T03:50:27;20.20;92.80
17370;DHT22;8802;52.402;4.920;2022-07-12T03:52:54;20.10;92.80
17370;DHT22;8802;52.402;4.920;2022-07-12T03:55:21;20.20;92.80
17370;DHT22;8802;52.402;4.920;2022-07-12T03:57:50;20.20;92.90
17370;DHT22;8802;52.402;4.920;2022-07-12T04:00:17;20.20;93.20
17370;DHT22;8802;52.402;4.920;2022-07-12T04:02:44;20.10;93.20
17370;DHT22;8802;52.402;4.920;2022-07-12T04:05:12;20.20;92.90
17370;DHT22;8802;52.402;4.920;2022-07-12T04:07:39;20.10;92.90
17370;DHT22;8802;52.402;4.920;2022-07-12T04:10:07;20.20;92.90
17370;DHT22;8802;52.402;4.920;2022-07-12T04:12:34;20.10;92.90
17370;DHT22;8802;52.402;4.920;2022-07-12T04:15:03;20.20;93.00
17370;DHT22;8802;52.402;4.920;2022-07-12T04:17:30;20.10;93.00
17370;DHT22;8802;52.402;4.920;2022-07-12T04:19:57;20.20;93.00
17370;DHT22;8802;52.402;4.920;2022-07-12T04:22:24;20.20;93.00
17370;DHT22;8802;52.402;4.920;2022-07-12T04:24:51;20.20;93.10
17370;DHT22;8802;52.402;4.920;2022-07-12T04:27:18;20.20;93.10
17370;DHT22;8802;52.402;4.920;2022-07-12T04:29:45;20.20;93.10
17370;DHT22;8802;52.402;4.920;2022-07-12T04:32:14;20.20;93.10
17370;DHT22;8802;52.402;4.920;2022-07-12T04:34:41;20.30;93.10
17370;DHT22;8802;52.402;4.920;2022-07-12T04:37:08;20.30;93.10
17370;DHT22;8802;52.402;4.920;2022-07-12T04:39:35;20.30;93.10
17370;DHT22;8802;52.402;4.920;2022-07-12T04:42:02;20.30;93.10
17370;DHT22;8802;52.402;4.920;2022-07-12T04:44:29;20.30;93.10
17370;DHT22;8802;52.402;4.920;2022-07-12T04:46:56;20.30;93.10
17370;DHT22;8802;52.402;4.920;2022-07-12T04:49:25;20.30;93.10
17370;DHT22;8802;52.402;4.920;2022-07-12T04:51:52;20.30;93.10
17370;DHT22;8802;52.402;4.920;2022-07-12T04:54:18;20.30;93.10
17370;DHT22;8802;52.402;4.920;2022-07-12T04:56:45;20.40;93.10
17370;DHT22;8802;52.402;4.920;2022-07-12T04:59:12;20.30;93.00
17370;DHT22;8802;52.402;4.920;2022-07-12T05:01:39;20.30;93.00
17370;DHT22;8802;52.402;4.920;2022-07-12T05:04:06;20.40;93.10
17370;DHT22;8802;52.402;4.920;2022-07-12T05:06:34;20.40;93.10
17370;DHT22;8802;52.402;4.920;2022-07-12T05:09:01;20.40;93.10
17370;DHT22;8802;52.402;4.920;2022-07-12T05:11:28;20.40;93.10
17370;DHT22;8802;52.402;4.920;2022-07-12T05:13:56;20.40;93.10
17370;DHT22;8802;52.402;4.920;2022-07-12T05:16:22;20.50;93.10
17370;DHT22;8802;52.402;4.920;2022-07-12T05:18:50;20.40;93.10
17370;DHT22;8802;52.402;4.920;2022-07-12T05:21:18;20.50;93.10
17370;DHT22;8802;52.402;4.920;2022-07-12T05:23:47;20.50;93.10
17370;DHT22;8802;52.402;4.920;2022-07-12T05:26:14;20.50;93.10
17370;DHT22;8802;52.402;4.920;2022-07-12T05:28:40;20.60;93.10
17370;DHT22;8802;52.402;4.920;2022-07-12T05:31:09;20.60;93.10
17370;DHT22;8802;52.402;4.920;2022-07-12T05:33:36;20.60;93.10
17370;DHT22;8802;52.402;4.920;2022-07-12T05:36:04;20.60;93.10
17370;DHT22;8802;52.402;4.920;2022-07-12T05:38:30;20.70;93.10
17370;DHT22;8802;52.402;4.920;2022-07-12T05:40:59;20.70;93.10
17370;DHT22;8802;52.402;4.920;2022-07-12T05:43:26;20.70;93.10
17370;DHT22;8802;52.402;4.920;2022-07-12T05:45:53;20.70;93.10
17370;DHT22;8802;52.402;4.920;2022-07-12T05:48:20;20.80;93.10
17370;DHT22;8802;52.402;4.920;2022-07-12T05:50:47;20.80;93.10
17370;DHT22;8802;52.402;4.920;2022-07-12T05:53:13;20.80;93.00
17370;DHT22;8802;52.402;4.920;2022-07-12T05:55:49;20.90;93.10
17370;DHT22;8802;52.402;4.920;2022-07-12T05:58:17;20.90;93.10
17370;DHT22;8802;52.402;4.920;2022-07-12T06:00:45;21.00;93.10
17370;DHT22;8802;52.402;4.920;2022-07-12T06:03:12;21.00;93.40
17370;DHT22;8802;52.402;4.920;2022-07-12T06:05:39;21.10;92.90
17370;DHT22;8802;52.402;4.920;2022-07-12T06:08:06;21.10;92.80
17370;DHT22;8802;52.402;4.920;2022-07-12T06:10:33;21.10;92.70
17370;DHT22;8802;52.402;4.920;2022-07-12T06:13:01;21.20;92.80
17370;DHT22;8802;52.402;4.920;2022-07-12T06:15:29;21.30;92.90
17370;DHT22;8802;52.402;4.920;2022-07-12T06:17:56;21.40;92.90
17370;DHT22;8802;52.402;4.920;2022-07-12T06:20:23;21.40;92.70
17370;DHT22;8802;52.402;4.920;2022-07-12T06:22:51;21.50;92.60
17370;DHT22;8802;52.402;4.920;2022-07-12T06:25:18;21.50;92.40
17370;DHT22;8802;52.402;4.920;2022-07-12T06:27:45;21.50;92.10
17370;DHT22;8802;52.402;4.920;2022-07-12T06:30:15;21.60;92.00
17370;DHT22;8802;52.402;4.920;2022-07-12T06:32:43;21.70;92.00
17370;DHT22;8802;52.402;4.920;2022-07-12T06:35:11;21.70;91.90
17370;DHT22;8802;52.402;4.920;2022-07-12T06:37:38;21.80;91.80
17370;DHT22;8802;52.402;4.920;2022-07-12T06:40:05;21.80;91.70
17370;DHT22;8802;52.402;4.920;2022-07-12T06:42:33;21.90;91.70
17370;DHT22;8802;52.402;4.920;2022-07-12T06:44:59;21.90;91.60
17370;DHT22;8802;52.402;4.920;2022-07-12T06:47:26;21.90;91.60
17370;DHT22;8802;52.402;4.920;2022-07-12T06:49:55;22.00;91.50
17370;DHT22;8802;52.402;4.920;2022-07-12T06:52:22;22.00;91.40
17370;DHT22;8802;52.402;4.920;2022-07-12T06:54:49;22.00;91.40
17370;DHT22;8802;52.402;4.920;2022-07-12T06:57:16;22.10;91.20
17370;DHT22;8802;52.402;4.920;2022-07-12T06:59:43;22.10;91.10
17370;DHT22;8802;52.402;4.920;2022-07-12T07:02:11;22.20;91.10
17370;DHT22;8802;52.402;4.920;2022-07-12T07:04:37;22.30;91.00
17370;DHT22;8802;52.402;4.920;2022-07-12T07:07:06;22.40;91.00
17370;DHT22;8802;52.402;4.920;2022-07-12T07:09:33;22.40;91.00
17370;DHT22;8802;52.402;4.920;2022-07-12T07:12:00;22.40;90.70
17370;DHT22;8802;52.402;4.920;2022-07-12T07:14:27;22.60;90.60
17370;DHT22;8802;52.402;4.920;2022-07-12T07:16:55;22.60;90.30
17370;DHT22;8802;52.402;4.920;2022-07-12T07:19:22;22.70;90.40
17370;DHT22;8802;52.402;4.920;2022-07-12T07:21:50;22.70;90.30
17370;DHT22;8802;52.402;4.920;2022-07-12T07:24:18;22.80;90.40
17370;DHT22;8802;52.402;4.920;2022-07-12T07:26:46;22.90;90.30
17370;DHT22;8802;52.402;4.920;2022-07-12T07:29:12;22.90;90.10
17370;DHT22;8802;52.402;4.920;2022-07-12T07:31:57;23.00;90.10
17370;DHT22;8802;52.402;4.920;2022-07-12T07:34:24;23.10;90.10
17370;DHT22;8802;52.402;4.920;2022-07-12T07:36:51;23.10;89.80
17370;DHT22;8802;52.402;4.920;2022-07-12T07:39:19;23.20;89.50
17370;DHT22;8802;52.402;4.920;2022-07-12T07:41:46;23.20;89.30
17370;DHT22;8802;52.402;4.920;2022-07-12T07:44:13;23.30;89.00
17370;DHT22;8802;52.402;4.920;2022-07-12T07:46:40;23.30;88.70
17370;DHT22;8802;52.402;4.920;2022-07-12T07:49:07;23.40;88.50
17370;DHT22;8802;52.402;4.920;2022-07-12T07:51:34;23.50;88.60
17370;DHT22;8802;52.402;4.920;2022-07-12T07:54:01;23.60;88.00
17370;DHT22;8802;52.402;4.920;2022-07-12T07:56:30;23.60;87.80
17370;DHT22;8802;52.402;4.920;2022-07-12T07:58:57;23.60;88.00
17370;DHT22;8802;52.402;4.920;2022-07-12T08:01:23;23.70;87.80
17370;DHT22;8802;52.402;4.920;2022-07-12T08:04:08;23.70;87.50
17370;DHT22;8802;52.402;4.920;2022-07-12T08:06:35;23.70;87.20
17370;DHT22;8802;52.402;4.920;2022-07-12T08:09:02;23.80;87.10
17370;DHT22;8802;52.402;4.920;2022-07-12T08:11:31;23.80;87.40
17370;DHT22;8802;52.402;4.920;2022-07-12T08:13:58;23.90;86.80
17370;DHT22;8802;52.402;4.920;2022-07-12T08:16:25;23.90;88.20
17370;DHT22;8802;52.402;4.920;2022-07-12T08:18:52;24.00;87.50
17370;DHT22;8802;52.402;4.920;2022-07-12T08:21:19;24.10;86.90
17370;DHT22;8802;52.402;4.920;2022-07-12T08:23:46;24.10;87.00
17370;DHT22;8802;52.402;4.920;2022-07-12T08:26:13;24.20;87.00
17370;DHT22;8802;52.402;4.920;2022-07-12T08:28:42;24.30;86.80
17370;DHT22;8802;52.402;4.920;2022-07-12T08:31:09;24.30;86.00
17370;DHT22;8802;52.402;4.920;2022-07-12T08:33:39;24.40;86.20
17370;DHT22;8802;52.402;4.920;2022-07-12T08:36:06;24.50;85.90
17370;DHT22;8802;52.402;4.920;2022-07-12T08:38:34;24.60;85.60
17370;DHT22;8802;52.402;4.920;2022-07-12T08:41:03;24.70;85.70
17370;DHT22;8802;52.402;4.920;2022-07-12T08:43:33;24.70;85.50
17370;DHT22;8802;52.402;4.920;2022-07-12T08:46:05;24.80;84.80
17370;DHT22;8802;52.402;4.920;2022-07-12T08:48:33;24.90;84.30
17370;DHT22;8802;52.402;4.920;2022-07-12T08:51:01;25.00;84.50
17370;DHT22;8802;52.402;4.920;2022-07-12T08:53:29;25.00;84.30
17370;DHT22;8802;52.402;4.920;2022-07-12T08:55:56;25.20;83.80
17370;DHT22;8802;52.402;4.920;2022-07-12T08:58:23;25.30;83.50
17370;DHT22;8802;52.402;4.920;2022-07-12T09:00:50;25.40;82.90
17370;DHT22;8802;52.402;4.920;2022-07-12T09:03:19;25.50;82.30
17370;DHT22;8802;52.402;4.920;2022-07-12T09:05:51;25.50;81.40
17370;DHT22;8802;52.402;4.920;2022-07-12T09:08:23;25.70;81.50
17370;DHT22;8802;52.402;4.920;2022-07-12T09:10:53;25.70;80.10
17370;DHT22;8802;52.402;4.920;2022-07-12T09:13:32;25.80;80.40
17370;DHT22;8802;52.402;4.920;2022-07-12T09:16:14;25.90;80.20
17370;DHT22;8802;52.402;4.920;2022-07-12T09:18:43;26.00;80.30
17370;DHT22;8802;52.402;4.920;2022-07-12T09:21:21;26.10;79.50
17370;DHT22;8802;52.402;4.920;2022-07-12T09:23:53;26.20;78.60
17370;DHT22;8802;52.402;4.920;2022-07-12T09:26:20;26.30;78.70
17370;DHT22;8802;52.402;4.920;2022-07-12T09:28:49;26.40;78.50
17370;DHT22;8802;52.402;4.920;2022-07-12T09:31:17;26.50;78.30
17370;DHT22;8802;52.402;4.920;2022-07-12T09:36:40;26.60;78.00
17370;DHT22;8802;52.402;4.920;2022-07-12T09:39:07;26.90;76.90
17370;DHT22;8802;52.402;4.920;2022-07-12T09:41:34;27.10;77.30
17370;DHT22;8802;52.402;4.920;2022-07-12T09:44:02;27.20;77.70
17370;DHT22;8802;52.402;4.920;2022-07-12T09:46:32;27.30;76.20
17370;DHT22;8802;52.402;4.920;2022-07-12T09:48:59;27.50;75.40
17370;DHT22;8802;52.402;4.920;2022-07-12T09:51:27;27.60;74.40
17370;DHT22;8802;52.402;4.920;2022-07-12T09:53:58;27.70;73.60
17370;DHT22;8802;52.402;4.920;2022-07-12T09:56:26;27.90;74.00
17370;DHT22;8802;52.402;4.920;2022-07-12T09:58:55;28.00;73.90
17370;DHT22;8802;52.402;4.920;2022-07-12T10:01:23;28.10;73.60
17370;DHT22;8802;52.402;4.920;2022-07-12T10:03:52;28.20;71.90
17370;DHT22;8802;52.402;4.920;2022-07-12T10:06:24;28.30;72.00
17370;DHT22;8802;52.402;4.920;2022-07-12T10:08:51;28.50;72.20
17370;DHT22;8802;52.402;4.920;2022-07-12T10:11:21;28.60;70.40
17370;DHT22;8802;52.402;4.920;2022-07-12T10:13:48;28.70;69.10
17370;DHT22;8802;52.402;4.920;2022-07-12T10:16:16;28.80;69.80
17370;DHT22;8802;52.402;4.920;2022-07-12T10:18:45;28.90;68.70
17370;DHT22;8802;52.402;4.920;2022-07-12T10:21:18;29.10;69.30
17370;DHT22;8802;52.402;4.920;2022-07-12T10:23:45;29.20;68.90
17370;DHT22;8802;52.402;4.920;2022-07-12T10:26:38;29.30;68.70
17370;DHT22;8802;52.402;4.920;2022-07-12T10:29:06;29.40;68.10
17370;DHT22;8802;52.402;4.920;2022-07-12T10:31:35;29.50;67.60
17370;DHT22;8802;52.402;4.920;2022-07-12T10:34:13;29.60;67.60
17370;DHT22;8802;52.402;4.920;2022-07-12T10:39:40;29.80;66.80
17370;DHT22;8802;52.402;4.920;2022-07-12T10:42:15;29.80;66.30
17370;DHT22;8802;52.402;4.920;2022-07-12T10:44:45;29.90;65.40
17370;DHT22;8802;52.402;4.920;2022-07-12T10:47:13;30.00;66.20
17370;DHT22;8802;52.402;4.920;2022-07-12T10:49:51;30.10;64.10
17370;DHT22;8802;52.402;4.920;2022-07-12T10:52:25;30.20;64.70
17370;DHT22;8802;52.402;4.920;2022-07-12T10:55:17;30.30;64.80
17370;DHT22;8802;52.402;4.920;2022-07-12T10:57:47;30.50;63.90
17370;DHT22;8802;52.402;4.920;2022-07-12T11:00:18;30.50;64.20
17370;DHT22;8802;52.402;4.920;2022-07-12T11:02:45;30.60;62.40
17370;DHT22;8802;52.402;4.920;2022-07-12T11:05:12;30.80;62.80
17370;DHT22;8802;52.402;4.920;2022-07-12T11:07:39;30.80;62.20
17370;DHT22;8802;52.402;4.920;2022-07-12T11:10:06;30.90;61.60
17370;DHT22;8802;52.402;4.920;2022-07-12T11:12:33;31.00;62.00
17370;DHT22;8802;52.402;4.920;2022-07-12T11:15:03;31.10;60.50
17370;DHT22;8802;52.402;4.920;2022-07-12T11:17:31;31.20;60.50
17370;DHT22;8802;52.402;4.920;2022-07-12T11:20:07;31.30;61.00
17370;DHT22;8802;52.402;4.920;2022-07-12T11:22:36;31.30;59.80
17370;DHT22;8802;52.402;4.920;2022-07-12T11:25:05;31.40;59.50
17370;DHT22;8802;52.402;4.920;2022-07-12T11:27:33;31.50;60.40
17370;DHT22;8802;52.402;4.920;2022-07-12T11:30:03;31.60;60.00
17370;DHT22;8802;52.402;4.920;2022-07-12T11:32:35;31.70;58.90
17370;DHT22;8802;52.402;4.920;2022-07-12T11:35:04;31.80;58.10
17370;DHT22;8802;52.402;4.920;2022-07-12T11:37:30;31.90;58.30
17370;DHT22;8802;52.402;4.920;2022-07-12T11:39:57;32.00;57.60
17370;DHT22;8802;52.402;4.920;2022-07-12T11:42:24;32.10;56.90
17370;DHT22;8802;52.402;4.920;2022-07-12T11:44:52;32.10;57.80
17370;DHT22;8802;52.402;4.920;2022-07-12T11:47:21;32.20;58.00
17370;DHT22;8802;52.402;4.920;2022-07-12T11:49:51;32.30;56.20
17370;DHT22;8802;52.402;4.920;2022-07-12T11:52:19;32.40;57.00
17370;DHT22;8802;52.402;4.920;2022-07-12T11:54:47;32.40;55.90
17370;DHT22;8802;52.402;4.920;2022-07-12T11:57:14;32.50;56.00
17370;DHT22;8802;52.402;4.920;2022-07-12T11:59:42;32.60;55.00
17370;DHT22;8802;52.402;4.920;2022-07-12T12:02:11;32.70;54.20
17370;DHT22;8802;52.402;4.920;2022-07-12T12:04:46;32.70;54.80
17370;DHT22;8802;52.402;4.920;2022-07-12T12:07:13;32.80;54.50
17370;DHT22;8802;52.402;4.920;2022-07-12T12:10:01;32.90;54.90
17370;DHT22;8802;52.402;4.920;2022-07-12T12:12:35;32.90;54.00
17370;DHT22;8802;52.402;4.920;2022-07-12T12:15:04;33.00;54.90
17370;DHT22;8802;52.402;4.920;2022-07-12T12:17:32;33.10;55.00
17370;DHT22;8802;52.402;4.920;2022-07-12T12:20:10;33.20;54.90
17370;DHT22;8802;52.402;4.920;2022-07-12T12:22:37;33.30;53.60
17370;DHT22;8802;52.402;4.920;2022-07-12T12:25:05;33.30;53.00
17370;DHT22;8802;52.402;4.920;2022-07-12T12:27:41;33.40;53.70
17370;DHT22;8802;52.402;4.920;2022-07-12T12:30:09;33.40;53.40
17370;DHT22;8802;52.402;4.920;2022-07-12T12:32:46;33.50;51.50
17370;DHT22;8802;52.402;4.920;2022-07-12T12:35:16;33.50;50.60
17370;DHT22;8802;52.402;4.920;2022-07-12T12:37:51;33.50;50.20
17370;DHT22;8802;52.402;4.920;2022-07-12T12:40:19;33.50;50.10
17370;DHT22;8802;52.402;4.920;2022-07-12T12:42:46;33.50;49.40
17370;DHT22;8802;52.402;4.920;2022-07-12T12:45:21;33.50;48.60
17370;DHT22;8802;52.402;4.920;2022-07-12T12:47:55;33.50;48.90
17370;DHT22;8802;52.402;4.920;2022-07-12T12:50:44;33.40;49.50
17370;DHT22;8802;52.402;4.920;2022-07-12T12:53:14;33.40;49.00
17370;DHT22;8802;52.402;4.920;2022-07-12T12:55:42;33.30;49.40
17370;DHT22;8802;52.402;4.920;2022-07-12T12:58:10;33.30;49.30
17370;DHT22;8802;52.402;4.920;2022-07-12T13:00:38;33.20;49.20
17370;DHT22;8802;52.402;4.920;2022-07-12T13:03:06;33.10;49.90
17370;DHT22;8802;52.402;4.920;2022-07-12T13:05:34;33.10;50.60
17370;DHT22;8802;52.402;4.920;2022-07-12T13:08:02;33.10;50.20
17370;DHT22;8802;52.402;4.920;2022-07-12T13:10:30;33.00;51.20
17370;DHT22;8802;52.402;4.920;2022-07-12T13:12:57;32.90;51.10
17370;DHT22;8802;52.402;4.920;2022-07-12T13:15:25;32.80;50.70
17370;DHT22;8802;52.402;4.920;2022-07-12T13:17:52;32.80;50.80
17370;DHT22;8802;52.402;4.920;2022-07-12T13:20:19;32.80;50.80
17370;DHT22;8802;52.402;4.920;2022-07-12T13:22:46;32.70;51.00
17370;DHT22;8802;52.402;4.920;2022-07-12T13:25:15;32.60;50.90
17370;DHT22;8802;52.402;4.920;2022-07-12T13:27:43;32.60;51.20
17370;DHT22;8802;52.402;4.920;2022-07-12T13:30:11;32.60;52.30
17370;DHT22;8802;52.402;4.920;2022-07-12T13:32:38;32.50;51.60
17370;DHT22;8802;52.402;4.920;2022-07-12T13:35:07;32.50;51.60
17370;DHT22;8802;52.402;4.920;2022-07-12T13:37:35;32.50;50.80
17370;DHT22;8802;52.402;4.920;2022-07-12T13:40:03;32.50;50.90
17370;DHT22;8802;52.402;4.920;2022-07-12T13:42:44;32.50;50.10
17370;DHT22;8802;52.402;4.920;2022-07-12T13:45:12;32.40;49.60
17370;DHT22;8802;52.402;4.920;2022-07-12T13:47:40;32.30;50.20
17370;DHT22;8802;52.402;4.920;2022-07-12T13:50:09;32.30;50.30
17370;DHT22;8802;52.402;4.920;2022-07-12T13:52:36;32.30;50.00
17370;DHT22;8802;52.402;4.920;2022-07-12T13:55:05;32.20;50.30
17370;DHT22;8802;52.402;4.920;2022-07-12T13:57:32;32.20;51.70
17370;DHT22;8802;52.402;4.920;2022-07-12T14:00:02;32.10;51.20
17370;DHT22;8802;52.402;4.920;2022-07-12T14:02:29;32.10;50.60
17370;DHT22;8802;52.402;4.920;2022-07-12T14:04:56;32.10;52.10
17370;DHT22;8802;52.402;4.920;2022-07-12T14:07:23;32.10;53.90
17370;DHT22;8802;52.402;4.920;2022-07-12T14:09:50;32.00;54.60
17370;DHT22;8802;52.402;4.920;2022-07-12T14:12:17;32.00;55.10
17370;DHT22;8802;52.402;4.920;2022-07-12T14:14:44;31.90;55.30
17370;DHT22;8802;52.402;4.920;2022-07-12T14:17:35;31.90;55.50
17370;DHT22;8802;52.402;4.920;2022-07-12T14:20:02;31.80;56.00
17370;DHT22;8802;52.402;4.920;2022-07-12T14:22:29;31.70;56.10
17370;DHT22;8802;52.402;4.920;2022-07-12T14:24:56;31.70;56.50
17370;DHT22;8802;52.402;4.920;2022-07-12T14:27:23;31.60;56.70
17370;DHT22;8802;52.402;4.920;2022-07-12T14:29:50;31.60;57.00
17370;DHT22;8802;52.402;4.920;2022-07-12T14:32:17;31.50;57.10
17370;DHT22;8802;52.402;4.920;2022-07-12T14:34:45;31.40;57.20
17370;DHT22;8802;52.402;4.920;2022-07-12T14:37:12;31.30;57.50
17370;DHT22;8802;52.402;4.920;2022-07-12T14:39:39;31.30;57.60
17370;DHT22;8802;52.402;4.920;2022-07-12T14:42:06;31.20;57.70
17370;DHT22;8802;52.402;4.920;2022-07-12T14:44:32;31.10;57.80
17370;DHT22;8802;52.402;4.920;2022-07-12T14:46:59;31.10;57.60
17370;DHT22;8802;52.402;4.920;2022-07-12T14:49:26;31.00;57.90
17370;DHT22;8802;52.402;4.920;2022-07-12T14:51:56;30.90;57.70
17370;DHT22;8802;52.402;4.920;2022-07-12T14:54:23;30.90;57.80
17370;DHT22;8802;52.402;4.920;2022-07-12T14:56:50;30.80;58.00
17370;DHT22;8802;52.402;4.920;2022-07-12T14:59:17;30.80;58.30
17370;DHT22;8802;52.402;4.920;2022-07-12T15:01:44;30.70;58.30
17370;DHT22;8802;52.402;4.920;2022-07-12T15:04:11;30.70;58.50
17370;DHT22;8802;52.402;4.920;2022-07-12T15:06:38;30.60;58.40
17370;DHT22;8802;52.402;4.920;2022-07-12T15:09:06;30.60;58.50
17370;DHT22;8802;52.402;4.920;2022-07-12T15:11:33;30.60;58.70
17370;DHT22;8802;52.402;4.920;2022-07-12T15:14:00;30.50;58.50
17370;DHT22;8802;52.402;4.920;2022-07-12T15:16:27;30.50;58.40
17370;DHT22;8802;52.402;4.920;2022-07-12T15:18:54;30.50;58.30
17370;DHT22;8802;52.402;4.920;2022-07-12T15:21:22;30.40;58.60
17370;DHT22;8802;52.402;4.920;2022-07-12T15:23:49;30.40;58.70
17370;DHT22;8802;52.402;4.920;2022-07-12T15:26:17;30.40;58.40
17370;DHT22;8802;52.402;4.920;2022-07-12T15:28:51;30.40;58.50
17370;DHT22;8802;52.402;4.920;2022-07-12T15:31:19;30.40;58.70
17370;DHT22;8802;52.402;4.920;2022-07-12T15:33:45;30.30;58.70
17370;DHT22;8802;52.402;4.920;2022-07-12T15:36:12;30.30;58.90
17370;DHT22;8802;52.402;4.920;2022-07-12T15:38:40;30.30;58.90
17370;DHT22;8802;52.402;4.920;2022-07-12T15:41:08;30.20;58.70
17370;DHT22;8802;52.402;4.920;2022-07-12T15:43:37;30.20;58.70
17370;DHT22;8802;52.402;4.920;2022-07-12T15:46:05;30.20;58.90
17370;DHT22;8802;52.402;4.920;2022-07-12T15:48:32;30.10;58.80
17370;DHT22;8802;52.402;4.920;2022-07-12T15:50:59;30.10;58.90
17370;DHT22;8802;52.402;4.920;2022-07-12T15:53:26;30.00;58.80
17370;DHT22;8802;52.402;4.920;2022-07-12T15:55:57;30.00;58.50
17370;DHT22;8802;52.402;4.920;2022-07-12T15:58:26;30.00;59.00